createdAt,value
2023-07-18T00:01:52.123Z,13.62
2023-07-18T00:05:55.108Z,13.53
2023-07-18T00:09:59.172Z,13.48
2023-07-18T00:14:03.726Z,13.46
2023-07-18T00:18:08.443Z,13.50
2023-07-18T00:22:11.514Z,13.48
2023-07-18T00:26:15.485Z,13.41
2023-07-18T00:30:20.187Z,13.38
2023-07-18T00:34:23.158Z,13.41
2023-07-18T00:38:26.075Z,13.35
2023-07-18T00:42:29.103Z,13.26
2023-07-18T00:46:33.547Z,13.13
2023-07-18T00:50:37.107Z,13.17
2023-07-18T00:54:40.712Z,13.00
2023-07-18T00:58:43.651Z,12.95
2023-07-18T01:02:48.237Z,12.97
2023-07-18T01:06:51.449Z,12.92
2023-07-18T01:10:54.392Z,12.80
2023-07-18T01:14:57.309Z,12.72
2023-07-18T01:19:01.765Z,12.63
2023-07-18T01:23:06.210Z,12.66
2023-07-18T01:27:09.225Z,12.55
2023-07-18T01:31:12.338Z,12.40
2023-07-18T01:35:18.297Z,12.36
2023-07-18T01:39:24.196Z,12.32
2023-07-18T01:43:27.565Z,12.36
2023-07-18T01:47:32.910Z,12.48
2023-07-18T01:51:35.861Z,12.49
2023-07-18T01:55:40.252Z,12.70
2023-07-18T01:59:43.262Z,12.77
2023-07-18T02:03:46.204Z,12.73
2023-07-18T02:07:50.091Z,12.76
2023-07-18T02:11:54.564Z,12.56
2023-07-18T02:15:57.576Z,12.57
2023-07-18T02:20:00.543Z,12.48
2023-07-18T02:24:04.576Z,12.40
2023-07-18T02:28:09.413Z,12.36
2023-07-18T02:32:12.514Z,12.42
2023-07-18T02:36:15.462Z,12.46
2023-07-18T02:40:19.456Z,12.35
2023-07-18T02:44:23.996Z,12.26
2023-07-18T02:48:27.469Z,12.24
2023-07-18T02:52:30.485Z,12.19
2023-07-18T02:56:33.662Z,12.15
2023-07-18T03:00:38.210Z,12.15
2023-07-18T03:04:41.156Z,12.22
2023-07-18T03:08:44.547Z,12.08
2023-07-18T03:12:47.817Z,12.01
2023-07-18T03:16:52.244Z,12.00
2023-07-18T03:20:55.270Z,11.88
2023-07-18T03:24:58.400Z,11.83
2023-07-18T03:29:01.517Z,11.91
2023-07-18T03:33:05.902Z,11.75
2023-07-18T03:37:10.397Z,11.71
2023-07-18T03:41:13.620Z,11.69
2023-07-18T03:45:16.889Z,11.66
2023-07-18T03:49:21.479Z,11.58
2023-07-18T03:53:24.643Z,11.57
2023-07-18T03:57:28.516Z,11.76
2023-07-18T04:01:32.136Z,11.53
2023-07-18T04:05:36.540Z,11.51
2023-07-18T04:09:39.506Z,11.68
2023-07-18T04:13:42.482Z,11.95
2023-07-18T04:17:45.482Z,11.83
2023-07-18T04:21:50.029Z,11.87
2023-07-18T04:25:57.893Z,12.06
2023-07-18T04:30:00.802Z,12.04
2023-07-18T04:34:03.900Z,12.14
2023-07-18T04:38:11.089Z,12.15
2023-07-18T04:42:14.171Z,12.26
2023-07-18T04:46:17.363Z,12.31
2023-07-18T04:50:20.461Z,12.51
2023-07-18T04:54:24.749Z,12.54
2023-07-18T04:58:28.484Z,12.59
2023-07-18T05:02:31.542Z,12.77
2023-07-18T05:06:34.673Z,12.85
2023-07-18T05:10:40.281Z,13.03
2023-07-18T05:14:43.174Z,13.13
2023-07-18T05:18:46.234Z,13.32
2023-07-18T05:22:49.330Z,13.50
2023-07-18T05:26:54.135Z,13.72
2023-07-18T05:30:57.439Z,13.83
2023-07-18T05:35:00.793Z,13.99
2023-07-18T05:39:04.074Z,14.03
2023-07-18T05:43:08.457Z,14.24
2023-07-18T05:47:11.430Z,14.53
2023-07-18T05:51:14.438Z,14.68
2023-07-18T05:55:17.515Z,14.80
2023-07-18T05:59:21.895Z,14.96
2023-07-18T06:03:25.108Z,15.13
2023-07-18T06:07:28.239Z,15.44
2023-07-18T06:11:31.241Z,15.59
2023-07-18T06:15:35.520Z,15.81
2023-07-18T06:19:38.511Z,15.91
2023-07-18T06:23:41.479Z,16.05
2023-07-18T06:27:44.644Z,16.12
2023-07-18T06:31:49.606Z,16.21
2023-07-18T06:35:53.726Z,16.30
2023-07-18T06:39:56.808Z,16.52
2023-07-18T06:43:59.894Z,16.81
2023-07-18T06:48:04.766Z,16.94
2023-07-18T06:52:08.213Z,17.24
2023-07-18T06:56:11.353Z,17.33
2023-07-18T07:00:14.855Z,17.42
2023-07-18T07:04:20.095Z,17.68
2023-07-18T07:08:24.146Z,17.77
2023-07-18T07:12:36.231Z,17.91
2023-07-18T07:16:40.420Z,18.29
2023-07-18T07:20:45.210Z,18.36
2023-07-18T07:24:48.976Z,18.51
2023-07-18T07:28:52.073Z,18.80
2023-07-18T07:32:55.288Z,18.86
2023-07-18T07:36:59.773Z,18.98
2023-07-18T07:41:02.728Z,18.87
2023-07-18T07:45:06.283Z,19.00
2023-07-18T07:49:09.280Z,19.37
2023-07-18T07:53:13.591Z,19.49
2023-07-18T07:57:16.837Z,19.98
2023-07-18T08:01:21.709Z,20.19
2023-07-18T08:05:25.212Z,20.20
2023-07-18T08:09:29.532Z,20.38
2023-07-18T08:13:32.777Z,20.40
2023-07-18T08:17:35.769Z,20.55
2023-07-18T08:21:38.899Z,20.65
2023-07-18T08:25:45.447Z,21.28
2023-07-18T08:29:48.464Z,22.78
2023-07-18T08:33:51.741Z,23.54
2023-07-18T08:37:55.428Z,22.46
2023-07-18T08:42:00.933Z,23.07
2023-07-18T08:46:06.320Z,24.40
2023-07-18T08:50:11.884Z,23.66
2023-07-18T08:54:15.037Z,22.65
2023-07-18T08:58:20.042Z,23.21
2023-07-18T09:02:23.254Z,22.69
2023-07-18T09:06:26.604Z,22.53
2023-07-18T09:10:30.721Z,22.71
2023-07-18T09:14:36.200Z,22.97
2023-07-18T09:18:40.105Z,24.30
2023-07-18T09:22:43.864Z,24.64
2023-07-18T09:26:49.411Z,25.85
2023-07-18T09:30:53.729Z,24.56
2023-07-18T09:34:57.636Z,22.94
2023-07-18T09:39:00.924Z,23.46
2023-07-18T09:43:03.941Z,22.87
2023-07-18T09:47:08.715Z,22.22
2023-07-18T09:51:12.524Z,23.05
2023-07-18T09:55:15.944Z,23.29
2023-07-18T09:59:19.149Z,22.72
2023-07-18T10:03:23.750Z,22.50
2023-07-18T10:07:27.322Z,22.91
2023-07-18T10:11:30.600Z,23.02
2023-07-18T10:15:53.606Z,22.87
2023-07-18T10:19:57.976Z,22.71
2023-07-18T10:24:22.522Z,23.03
2023-07-18T10:28:42.988Z,23.20
2023-07-18T10:32:54.069Z,22.52
2023-07-18T10:37:00.515Z,23.40
2023-07-18T10:41:03.894Z,23.36
2023-07-18T10:45:07.817Z,23.47
2023-07-18T10:49:12.788Z,22.96
2023-07-18T10:53:18.943Z,23.23
2023-07-18T10:57:25.292Z,23.47
2023-07-18T11:01:29.114Z,23.07
2023-07-18T11:05:32.115Z,24.47
2023-07-18T11:09:36.929Z,24.42
2023-07-18T11:13:44.814Z,24.25
2023-07-18T11:17:48.261Z,23.47
2023-07-18T11:21:51.646Z,23.47
2023-07-18T11:25:56.187Z,23.61
2023-07-18T11:29:59.480Z,24.49
2023-07-18T11:34:02.730Z,24.27
2023-07-18T11:38:05.999Z,26.02
2023-07-18T11:42:10.520Z,26.73
2023-07-18T11:46:13.460Z,26.45
2023-07-18T11:50:16.926Z,26.77
2023-07-18T11:54:19.881Z,26.76
2023-07-18T11:58:25.715Z,28.35
2023-07-18T12:02:29.056Z,26.32
2023-07-18T12:06:32.139Z,26.36
2023-07-18T12:10:35.240Z,26.30
2023-07-18T12:14:39.801Z,27.45
2023-07-18T12:18:42.866Z,27.64
2023-07-18T12:22:45.944Z,27.13
2023-07-18T12:26:49.060Z,28.24
2023-07-18T12:30:53.431Z,27.44
2023-07-18T12:34:57.145Z,26.65
2023-07-18T12:39:00.169Z,28.27
2023-07-18T12:43:03.328Z,26.74
2023-07-18T12:47:08.656Z,28.47
2023-07-18T12:51:11.753Z,28.52
2023-07-18T12:55:14.685Z,29.15
2023-07-18T12:59:17.823Z,28.41
2023-07-18T13:03:22.882Z,28.78
2023-07-18T13:07:26.303Z,27.86
2023-07-18T13:11:29.273Z,28.26
2023-07-18T13:15:32.249Z,27.81
2023-07-18T13:19:36.829Z,28.42
2023-07-18T13:23:39.765Z,27.81
2023-07-18T13:27:42.810Z,28.17
2023-07-18T13:31:46.250Z,28.17
2023-07-18T13:35:50.821Z,28.70
2023-07-18T13:39:53.879Z,28.23
2023-07-18T13:43:56.879Z,28.97
2023-07-18T13:47:59.904Z,29.75
2023-07-18T13:52:04.465Z,29.80
2023-07-18T13:56:07.666Z,28.19
2023-07-18T14:00:11.376Z,28.35
2023-07-18T14:04:17.491Z,28.37
2023-07-18T14:08:22.202Z,28.26
2023-07-18T14:12:25.175Z,28.70
2023-07-18T14:16:28.280Z,27.94
2023-07-18T14:20:31.238Z,29.47
2023-07-18T14:24:35.541Z,29.96
2023-07-18T14:28:38.405Z,29.65
2023-07-18T14:32:41.397Z,29.33
2023-07-18T14:36:44.948Z,29.67
2023-07-18T14:40:50.804Z,29.33
2023-07-18T14:44:54.294Z,29.87
2023-07-18T14:48:57.341Z,28.73
2023-07-18T14:53:00.283Z,28.24
2023-07-18T14:57:04.832Z,29.27
2023-07-18T15:01:08.052Z,29.23
2023-07-18T15:05:11.040Z,29.21
2023-07-18T15:09:14.013Z,30.08
2023-07-18T15:13:18.405Z,30.42
2023-07-18T15:17:21.571Z,30.06
2023-07-18T15:21:24.570Z,29.51
2023-07-18T15:25:27.679Z,30.70
2023-07-18T15:29:32.005Z,29.80
2023-07-18T15:33:37.698Z,28.93
2023-07-18T15:37:40.873Z,29.20
2023-07-18T15:41:43.845Z,28.43
2023-07-18T15:45:49.581Z,29.19
2023-07-18T15:49:53.275Z,28.33
2023-07-18T15:53:56.333Z,28.77
2023-07-18T15:57:59.559Z,28.24
2023-07-18T16:02:05.325Z,28.62
2023-07-18T16:06:08.309Z,28.01
2023-07-18T16:10:11.788Z,29.20
2023-07-18T16:14:15.156Z,28.44
2023-07-18T16:18:19.448Z,30.20
2023-07-18T16:22:22.613Z,29.83
2023-07-18T16:26:25.970Z,27.98
2023-07-18T16:30:29.117Z,28.98
2023-07-18T16:34:33.563Z,29.32
2023-07-18T16:38:37.115Z,30.26
2023-07-18T16:42:40.109Z,30.64
2023-07-18T16:46:43.548Z,28.40
2023-07-18T16:50:47.942Z,26.92
2023-07-18T16:54:50.946Z,27.13
2023-07-18T16:58:54.438Z,28.02
2023-07-18T17:02:57.568Z,27.19
2023-07-18T17:07:02.026Z,26.91
2023-07-18T17:11:05.254Z,25.92
2023-07-18T17:15:08.606Z,25.70
2023-07-18T17:19:11.784Z,25.41
2023-07-18T17:23:16.320Z,24.75
2023-07-18T17:27:19.789Z,24.91
2023-07-18T17:31:22.817Z,25.67
2023-07-18T17:35:26.102Z,26.31
2023-07-18T17:39:30.893Z,26.08
2023-07-18T17:43:34.718Z,26.66
2023-07-18T17:47:38.050Z,26.59
2023-07-18T17:51:41.079Z,25.96
2023-07-18T17:55:45.569Z,26.02
2023-07-18T17:59:49.058Z,24.81
2023-07-18T18:03:52.958Z,24.28
2023-07-18T18:07:55.941Z,24.39
2023-07-18T18:12:00.434Z,23.78
2023-07-18T18:16:08.788Z,23.68
2023-07-18T18:20:12.834Z,23.43
2023-07-18T18:24:15.784Z,23.68
2023-07-18T18:28:22.935Z,23.72
2023-07-18T18:32:25.908Z,23.85
2023-07-18T18:36:28.940Z,23.56
2023-07-18T18:40:31.990Z,22.97
2023-07-18T18:44:36.363Z,22.75
2023-07-18T18:48:39.588Z,22.51
2023-07-18T18:52:42.605Z,22.29
2023-07-18T18:56:45.572Z,21.97
2023-07-18T19:00:49.901Z,21.79
2023-07-18T19:04:53.244Z,21.70
2023-07-18T19:08:56.538Z,21.44
2023-07-18T19:12:59.608Z,21.31
2023-07-18T19:17:04.173Z,21.13
2023-07-18T19:21:07.208Z,20.91
2023-07-18T19:25:10.342Z,20.48
2023-07-18T19:29:13.302Z,20.11
2023-07-18T19:33:17.624Z,19.91
2023-07-18T19:37:20.892Z,19.89
2023-07-18T19:41:24.450Z,19.76
2023-07-18T19:45:27.460Z,19.70
2023-07-18T19:49:31.760Z,19.55
2023-07-18T19:53:34.715Z,19.59
2023-07-18T19:57:37.735Z,19.50
2023-07-18T20:01:40.753Z,19.29
2023-07-18T20:05:45.249Z,19.29
2023-07-18T20:09:48.160Z,19.18
2023-07-18T20:13:51.538Z,19.12
2023-07-18T20:17:54.560Z,18.94
2023-07-18T20:21:59.303Z,18.83
2023-07-18T20:26:02.601Z,18.77
2023-07-18T20:30:06.490Z,18.78
2023-07-18T20:34:09.588Z,18.65
2023-07-18T20:38:13.978Z,18.62
2023-07-18T20:42:17.098Z,18.56
2023-07-18T20:46:20.149Z,18.46
2023-07-18T20:50:23.297Z,18.40
2023-07-18T20:54:29.906Z,18.10
2023-07-18T20:58:32.871Z,17.82
2023-07-18T21:02:35.881Z,17.83
2023-07-18T21:06:38.827Z,17.87
2023-07-18T21:10:43.367Z,17.91
2023-07-18T21:14:46.328Z,17.77
2023-07-18T21:18:49.297Z,17.73
2023-07-18T21:22:53.434Z,17.86
2023-07-18T21:26:57.914Z,17.77
2023-07-18T21:31:00.892Z,17.72
2023-07-18T21:35:04.112Z,17.27
2023-07-18T21:39:07.128Z,17.15
2023-07-18T21:43:12.075Z,16.96
2023-07-18T21:47:15.059Z,16.86
2023-07-18T21:51:18.411Z,16.77
2023-07-18T21:55:21.756Z,16.82
2023-07-18T21:59:27.005Z,16.79
2023-07-18T22:03:29.986Z,16.93
2023-07-18T22:07:33.252Z,17.00
2023-07-18T22:11:36.209Z,16.98
2023-07-18T22:15:40.512Z,16.89
2023-07-18T22:19:44.485Z,16.76
2023-07-18T22:23:47.456Z,16.76
2023-07-18T22:27:50.362Z,16.53
2023-07-18T22:31:54.765Z,16.27
2023-07-18T22:35:57.882Z,16.20
2023-07-18T22:40:00.899Z,16.10
2023-07-18T22:44:03.801Z,15.98
2023-07-18T22:48:08.272Z,16.12
2023-07-18T22:52:13.608Z,16.09
2023-07-18T22:56:17.982Z,16.29
2023-07-18T23:00:21.141Z,16.26
2023-07-18T23:04:25.478Z,16.31
2023-07-18T23:08:47.104Z,16.20
2023-07-18T23:13:08.287Z,15.92
2023-07-18T23:17:11.305Z,16.05
2023-07-18T23:21:15.709Z,16.03
2023-07-18T23:25:18.919Z,15.82
2023-07-18T23:29:22.002Z,15.82
2023-07-18T23:33:25.210Z,15.98
2023-07-18T23:37:29.569Z,16.07
2023-07-18T23:41:32.537Z,16.08
2023-07-18T23:45:35.788Z,15.82
2023-07-18T23:49:38.825Z,15.77
2023-07-18T23:53:43.090Z,15.56
2023-07-18T23:57:46.021Z,15.45
